Time;durP1;ratioP1;P1;durP2;ratioP2;P2;SDS_P1;SDS_P2;PMS_P1;PMS_P2;Temp;Humidity;BMP_temperature;BMP_pressure;BME280_temperature;BME280_humidity;BME280_pressure;Samples;Min_cycle;Max_cycle;Signal;HPM_P1;HPM_P2
2022/04/17 00:00:52;;;;;;;;;2.75;2.75;;;;;;;;4996204;28;11479;-75
2022/04/17 00:03:21;;;;;;;;;2.50;2.50;;;;;;;;4998930;28;11518;-72
2022/04/17 00:05:50;;;;;;;;;2.00;2.00;;;;;;;;5003040;28;11571;-72
2022/04/17 00:08:18;;;;;;;;;3.00;3.00;;;;;;;;4993606;28;11397;-75
2022/04/17 00:10:46;;;;;;;;;2.00;2.00;;;;;;;;5000134;28;11257;-75
2022/04/17 00:13:14;;;;;;;;;2.00;2.00;;;;;;;;5001422;28;11528;-73
2022/04/17 00:15:42;;;;;;;;;5.00;5.00;;;;;;;;4987834;28;11512;-74
2022/04/17 00:18:10;;;;;;;;;6.25;5.00;;;;;;;;4997408;28;11637;-72
2022/04/17 00:20:39;;;;;;;;;5.00;5.00;;;;;;;;4994803;28;11255;-72
2022/04/17 00:23:07;;;;;;;;;4.25;4.25;;;;;;;;4997444;28;11568;-73
2022/04/17 00:25:35;;;;;;;;;3.00;3.00;;;;;;;;5001514;28;11186;-73
2022/04/17 00:28:02;;;;;;;;;2.75;2.50;;;;;;;;4998913;28;11229;-73
2022/04/17 00:30:29;;;;;;;;;3.00;3.00;;;;;;;;5002862;28;11063;-73
2022/04/17 00:32:57;;;;;;;;;5.75;5.75;;;;;;;;4995888;28;11100;-73
2022/04/17 00:35:24;;;;;;;;;0.50;0.00;;;;;;;;5000327;28;11090;-75
2022/04/17 00:37:51;;;;;;;;;4.50;4.50;;;;;;;;5003842;28;10933;-75
2022/04/17 00:40:20;;;;;;;;;2.25;2.25;;;;;;;;4998981;28;11145;-74
2022/04/17 00:42:48;;;;;;;;;3.00;2.75;;;;;;;;5006883;28;11000;-75
2022/04/17 00:45:15;;;;;;;;;3.00;3.00;;;;;;;;5002100;28;10859;-73
2022/04/17 00:47:42;;;;;;;;;3.50;3.50;;;;;;;;4991216;28;10864;-73
2022/04/17 00:50:10;;;;;;;;;3.00;3.00;;;;;;;;4995030;28;10948;-73
2022/04/17 00:52:38;;;;;;;;;3.00;1.00;;;;;;;;5007001;28;10876;-74
2022/04/17 00:55:07;;;;;;;;;4.25;2.00;;;;;;;;5000792;28;10863;-72
2022/04/17 00:57:36;;;;;;;;;3.00;3.00;;;;;;;;4995652;28;11049;-73
2022/04/17 01:00:06;;;;;;;;;2.00;2.00;;;;;;;;4996574;28;10797;-73
2022/04/17 01:02:33;;;;;;;;;3.00;3.00;;;;;;;;4990087;28;10760;-73
2022/04/17 01:05:01;;;;;;;;;3.00;3.00;;;;;;;;5001331;28;10799;-74
2022/04/17 01:07:28;;;;;;;;;4.50;4.50;;;;;;;;5001916;28;10846;-73
2022/04/17 01:09:57;;;;;;;;;2.50;2.50;;;;;;;;5000388;28;10705;-73
2022/04/17 01:12:24;;;;;;;;;4.25;2.50;;;;;;;;5000180;28;10737;-73
2022/04/17 01:14:54;;;;;;;;;3.25;3.25;;;;;;;;4986934;28;10995;-73
2022/04/17 01:17:21;;;;;;;;;2.00;2.00;;;;;;;;4996265;28;10725;-74
2022/04/17 01:19:50;;;;;;;;;3.00;3.00;;;;;;;;5004438;28;11067;-73
2022/04/17 01:22:19;;;;;;;;;3.00;3.00;;;;;;;;4994168;28;12211;-75
2022/04/17 01:27:32;;;;;;;;;3.00;3.00;;;;;;;;4993995;28;11073;-74
2022/04/17 01:29:59;;;;;;;;;3.00;3.00;;;;;;;;4995178;28;11017;-76
2022/04/17 01:32:27;;;;;;;;;2.25;1.75;;;;;;;;4986910;28;12075;-76
2022/04/17 01:34:54;;;;;;;;;3.00;3.00;;;;;;;;4999268;28;11003;-75
2022/04/17 01:37:23;;;;;;;;;2.75;2.75;;;;;;;;4995264;28;11089;-74
2022/04/17 01:39:50;;;;;;;;;3.00;3.00;;;;;;;;4988435;28;11032;-73
2022/04/17 01:42:17;;;;;;;;;3.00;3.00;;;;;;;;4992565;28;10932;-75
2022/04/17 01:44:45;;;;;;;;;2.00;2.00;;;;;;;;4999356;28;11123;-75
2022/04/17 01:47:12;;;;;;;;;1.00;1.00;;;;;;;;4997979;28;11086;-74
2022/04/17 01:49:40;;;;;;;;;2.00;2.00;;;;;;;;5002015;28;11111;-74
2022/04/17 01:52:09;;;;;;;;;4.75;4.75;;;;;;;;5002816;28;11080;-72
2022/04/17 01:54:37;;;;;;;;;3.00;3.00;;;;;;;;4998016;28;11183;-73
2022/04/17 01:57:05;;;;;;;;;4.50;4.50;;;;;;;;5004295;28;11165;-75
2022/04/17 01:59:32;;;;;;;;;2.00;2.00;;;;;;;;5005650;28;10985;-73
2022/04/17 02:02:00;;;;;;;;;3.50;3.50;;;;;;;;5001153;28;10802;-75
2022/04/17 02:04:32;;;;;;;;;4.00;4.00;;;;;;;;5004477;28;11766;-73
2022/04/17 02:06:59;;;;;;;;;6.50;5.25;;;;;;;;5001678;28;11040;-74
2022/04/17 02:09:27;;;;;;;;;7.00;2.75;;;;;;;;5002105;28;11143;-74
2022/04/17 02:11:55;;;;;;;;;3.00;3.00;;;;;;;;5002351;28;11130;-74
2022/04/17 02:14:23;;;;;;;;;6.00;3.00;;;;;;;;5004197;28;11816;-74
2022/04/17 02:16:50;;;;;;;;;4.75;2.75;;;;;;;;5000627;28;11036;-73
2022/04/17 02:19:19;;;;;;;;;1.00;1.00;;;;;;;;5007095;28;11012;-74
2022/04/17 02:21:46;;;;;;;;;5.50;3.00;;;;;;;;5001814;28;10919;-73
2022/04/17 02:24:13;;;;;;;;;1.00;1.00;;;;;;;;5003078;28;11101;-72
2022/04/17 02:26:40;;;;;;;;;2.25;2.25;;;;;;;;5005215;28;11885;-75
2022/04/17 02:29:09;;;;;;;;;2.00;2.00;;;;;;;;4996979;28;10928;-72
2022/04/17 02:31:36;;;;;;;;;3.00;3.00;;;;;;;;5001344;28;10923;-75
2022/04/17 02:34:03;;;;;;;;;3.00;3.00;;;;;;;;5000739;28;11321;-73
2022/04/17 02:36:31;;;;;;;;;3.00;3.00;;;;;;;;4997197;28;11162;-74
2022/04/17 02:38:58;;;;;;;;;3.00;3.00;;;;;;;;5001254;28;11243;-72
2022/04/17 02:41:25;;;;;;;;;3.50;3.50;;;;;;;;4992654;28;12061;-72
2022/04/17 02:43:53;;;;;;;;;1.25;1.25;;;;;;;;5003023;28;11542;-74
2022/04/17 02:49:08;;;;;;;;;2.00;2.00;;;;;;;;4999695;28;11223;-71
2022/04/17 02:51:35;;;;;;;;;5.50;2.50;;;;;;;;5003430;28;11496;-75
2022/04/17 02:54:02;;;;;;;;;4.75;2.00;;;;;;;;4999554;28;11612;-72
2022/04/17 02:56:29;;;;;;;;;4.00;4.00;;;;;;;;4999778;28;11619;-72
2022/04/17 02:58:56;;;;;;;;;3.00;3.00;;;;;;;;5001897;28;11611;-71
2022/04/17 03:06:55;;;;;;;;;2.50;2.50;;;;;;;;4995428;28;11468;-72
2022/04/17 03:09:22;;;;;;;;;2.75;2.75;;;;;;;;4996016;28;11479;-72
2022/04/17 03:11:49;;;;;;;;;2.00;2.00;;;;;;;;5005182;28;11509;-73
2022/04/17 03:14:16;;;;;;;;;2.50;2.50;;;;;;;;5005805;28;11580;-72
2022/04/17 03:16:45;;;;;;;;;2.00;2.00;;;;;;;;5001973;28;11515;-74
2022/04/17 03:19:13;;;;;;;;;4.00;2.00;;;;;;;;5000310;28;11539;-74
2022/04/17 03:21:40;;;;;;;;;2.00;2.00;;;;;;;;5003052;28;11511;-73
2022/04/17 03:24:08;;;;;;;;;1.25;1.25;;;;;;;;5000014;28;11580;-72
2022/04/17 03:26:36;;;;;;;;;3.00;3.00;;;;;;;;4999141;28;12357;-74
2022/04/17 03:29:04;;;;;;;;;5.00;5.00;;;;;;;;4997691;28;11542;-72
2022/04/17 03:31:31;;;;;;;;;4.00;2.00;;;;;;;;4999254;28;11459;-73
2022/04/17 03:34:00;;;;;;;;;3.00;3.00;;;;;;;;5002601;28;11538;-72
2022/04/17 03:36:29;;;;;;;;;3.75;2.00;;;;;;;;5002026;28;11609;-73
2022/04/17 03:38:58;;;;;;;;;3.00;3.00;;;;;;;;5007756;28;11508;-74
2022/04/17 03:41:26;;;;;;;;;3.00;3.00;;;;;;;;5001748;28;12242;-74
2022/04/17 03:43:53;;;;;;;;;3.00;3.00;;;;;;;;4998877;28;11495;-74
2022/04/17 03:46:20;;;;;;;;;5.00;5.00;;;;;;;;4997969;28;11625;-72
2022/04/17 03:48:47;;;;;;;;;5.50;3.00;;;;;;;;5002333;28;11587;-73
2022/04/17 03:51:16;;;;;;;;;4.00;4.00;;;;;;;;4997966;28;11605;-71
2022/04/17 03:53:43;;;;;;;;;4.00;4.00;;;;;;;;5001450;28;11562;-73
2022/04/17 03:56:10;;;;;;;;;3.00;3.00;;;;;;;;5000997;28;12313;-73
2022/04/17 03:58:37;;;;;;;;;4.50;4.50;;;;;;;;5001245;28;11615;-74
2022/04/17 04:01:05;;;;;;;;;4.50;4.00;;;;;;;;4999193;28;11422;-72
2022/04/17 04:03:32;;;;;;;;;4.00;4.00;;;;;;;;4997934;28;11498;-73
2022/04/17 04:05:59;;;;;;;;;5.75;5.75;;;;;;;;4993980;28;11484;-72
2022/04/17 04:08:28;;;;;;;;;6.50;6.50;;;;;;;;4999652;28;11503;-74
2022/04/17 04:10:55;;;;;;;;;5.00;5.00;;;;;;;;4993459;28;11628;-72
2022/04/17 04:13:22;;;;;;;;;5.25;5.25;;;;;;;;5008953;28;11520;-72
2022/04/17 04:15:50;;;;;;;;;6.00;4.00;;;;;;;;4997162;28;11512;-72
2022/04/17 04:18:17;;;;;;;;;5.00;5.00;;;;;;;;4992392;28;11513;-72
2022/04/17 04:20:44;;;;;;;;;5.25;5.25;;;;;;;;5003399;28;11509;-72
2022/04/17 04:23:11;;;;;;;;;5.00;5.00;;;;;;;;4990809;28;11613;-74
2022/04/17 04:25:40;;;;;;;;;3.00;3.00;;;;;;;;4993573;28;11490;-74
2022/04/17 04:30:52;;;;;;;;;6.50;4.50;;;;;;;;4998493;28;11383;-73
2022/04/17 04:33:19;;;;;;;;;0.00;0.00;;;;;;;;4998237;28;11545;-74
2022/04/17 04:35:46;;;;;;;;;3.00;3.00;;;;;;;;4998205;28;12336;-74
2022/04/17 04:38:13;;;;;;;;;5.50;5.50;;;;;;;;4994916;28;11484;-72
2022/04/17 04:40:42;;;;;;;;;5.00;5.00;;;;;;;;4994642;28;11486;-74
2022/04/17 04:43:09;;;;;;;;;3.00;3.00;;;;;;;;5005552;28;11496;-74
2022/04/17 04:51:03;;;;;;;;;4.50;3.50;;;;;;;;4995311;28;12266;-72
2022/04/17 04:53:30;;;;;;;;;6.50;3.00;;;;;;;;5002325;28;11537;-74
2022/04/17 04:55:59;;;;;;;;;6.50;6.50;;;;;;;;4998266;28;11504;-74
2022/04/17 04:58:27;;;;;;;;;3.00;3.00;;;;;;;;5000637;28;11503;-75
2022/04/17 05:00:54;;;;;;;;;3.50;3.50;;;;;;;;5000804;28;11569;-75
2022/04/17 05:03:21;;;;;;;;;5.25;3.50;;;;;;;;5001446;28;11483;-75
2022/04/17 05:05:48;;;;;;;;;5.25;5.25;;;;;;;;4995339;28;11497;-74
2022/04/17 05:08:15;;;;;;;;;2.00;2.00;;;;;;;;4998809;28;11523;-73
2022/04/17 05:10:43;;;;;;;;;6.75;6.75;;;;;;;;4998945;28;11600;-75
2022/04/17 05:13:11;;;;;;;;;6.00;3.00;;;;;;;;4991642;28;11516;-74
2022/04/17 05:15:39;;;;;;;;;3.75;2.25;;;;;;;;4994586;28;11471;-75
2022/04/17 05:18:06;;;;;;;;;1.75;1.75;;;;;;;;4994385;28;11519;-74
2022/04/17 05:20:34;;;;;;;;;6.25;5.50;;;;;;;;5002303;28;11507;-74
2022/04/17 05:23:15;;;;;;;;;6.00;6.00;;;;;;;;4991216;28;11553;-74
2022/04/17 05:25:42;;;;;;;;;4.00;4.00;;;;;;;;4996537;28;11543;-74
2022/04/17 05:28:11;;;;;;;;;5.75;3.50;;;;;;;;5002877;28;11527;-73
2022/04/17 05:30:38;;;;;;;;;6.00;6.00;;;;;;;;4999168;28;12218;-74
2022/04/17 05:33:06;;;;;;;;;4.50;3.00;;;;;;;;5000952;28;11639;-74
2022/04/17 05:35:33;;;;;;;;;3.00;3.00;;;;;;;;5000958;28;11482;-74
2022/04/17 05:38:01;;;;;;;;;8.50;6.00;;;;;;;;4997864;28;11498;-75
2022/04/17 05:40:28;;;;;;;;;5.00;5.00;;;;;;;;4997264;28;11481;-74
2022/04/17 05:42:57;;;;;;;;;4.00;4.00;;;;;;;;4996808;28;11494;-73
2022/04/17 05:45:25;;;;;;;;;2.25;2.25;;;;;;;;4989300;28;11528;-73
2022/04/17 05:47:52;;;;;;;;;4.00;4.00;;;;;;;;4991261;28;11644;-75
2022/04/17 05:50:20;;;;;;;;;2.00;2.00;;;;;;;;4999556;28;11536;-73
2022/04/17 05:52:47;;;;;;;;;4.50;4.50;;;;;;;;4998382;28;11471;-73
2022/04/17 05:55:15;;;;;;;;;7.00;5.25;;;;;;;;4996384;28;11582;-74
2022/04/17 05:57:42;;;;;;;;;6.00;6.00;;;;;;;;4995309;28;11456;-75
2022/04/17 06:00:11;;;;;;;;;2.50;2.50;;;;;;;;4994584;28;11498;-79
2022/04/17 06:02:40;;;;;;;;;6.00;6.00;;;;;;;;4986047;28;11581;-80
2022/04/17 06:05:08;;;;;;;;;4.25;2.00;;;;;;;;5002290;28;11564;-80
2022/04/17 06:07:36;;;;;;;;;3.00;3.00;;;;;;;;5002745;28;11489;-80
2022/04/17 06:10:03;;;;;;;;;5.00;5.00;;;;;;;;4996974;28;11505;-80
2022/04/17 06:12:31;;;;;;;;;2.00;2.00;;;;;;;;5002127;28;11611;-79
2022/04/17 06:14:58;;;;;;;;;3.00;3.00;;;;;;;;4994373;28;11582;-79
2022/04/17 06:17:25;;;;;;;;;3.50;2.75;;;;;;;;5000786;28;12309;-80
2022/04/17 06:19:54;;;;;;;;;1.50;1.50;;;;;;;;4999764;28;11694;-82
2022/04/17 06:22:22;;;;;;;;;6.00;3.00;;;;;;;;5010297;28;11859;-82
2022/04/17 06:24:49;;;;;;;;;3.75;3.00;;;;;;;;5002219;28;11468;-82
2022/04/17 06:27:17;;;;;;;;;3.25;3.25;;;;;;;;5005627;28;11492;-82
2022/04/17 06:29:44;;;;;;;;;8.00;6.00;;;;;;;;4998261;28;11497;-82
2022/04/17 06:32:11;;;;;;;;;3.00;3.00;;;;;;;;4991437;28;11502;-81
2022/04/17 06:34:39;;;;;;;;;4.75;3.00;;;;;;;;4999442;28;11480;-79
2022/04/17 06:37:08;;;;;;;;;6.50;5.00;;;;;;;;5008252;28;11486;-80
2022/04/17 06:39:35;;;;;;;;;3.50;3.50;;;;;;;;5003028;28;11544;-80
2022/04/17 06:42:03;;;;;;;;;7.00;5.25;;;;;;;;5012805;28;11510;-80
2022/04/17 06:44:30;;;;;;;;;7.00;5.00;;;;;;;;5013661;28;11567;-81
2022/04/17 06:46:57;;;;;;;;;8.00;6.00;;;;;;;;5005337;28;11501;-79
2022/04/17 06:49:25;;;;;;;;;6.50;6.50;;;;;;;;5002635;28;11519;-84
2022/04/17 06:51:52;;;;;;;;;3.00;3.00;;;;;;;;5009369;28;11510;-81
2022/04/17 06:54:21;;;;;;;;;5.25;5.25;;;;;;;;5003189;28;11434;-85
2022/04/17 06:56:48;;;;;;;;;4.00;4.00;;;;;;;;5001952;28;12131;-82
2022/04/17 06:59:16;;;;;;;;;6.50;4.50;;;;;;;;5001812;28;11505;-85
2022/04/17 07:01:43;;;;;;;;;3.50;3.50;;;;;;;;5004843;28;11209;-89
2022/04/17 07:04:10;;;;;;;;;2.75;2.75;;;;;;;;5005838;28;11239;-86
2022/04/17 07:06:38;;;;;;;;;3.00;3.00;;;;;;;;5007048;28;11321;-86
2022/04/17 07:09:05;;;;;;;;;4.50;4.50;;;;;;;;4998425;28;11146;-85
2022/04/17 07:11:34;;;;;;;;;2.00;2.00;;;;;;;;5005397;28;11120;-79
2022/04/17 07:14:01;;;;;;;;;2.25;2.25;;;;;;;;5004149;28;10999;-91
2022/04/17 07:16:29;;;;;;;;;3.00;3.00;;;;;;;;4999635;28;12200;-88
2022/04/17 07:18:56;;;;;;;;;4.75;2.50;;;;;;;;4999630;28;11002;-87
2022/04/17 07:21:23;;;;;;;;;5.00;5.00;;;;;;;;4995527;28;10942;-78
2022/04/17 07:23:51;;;;;;;;;2.75;2.75;;;;;;;;5004418;28;11032;-78
2022/04/17 07:26:18;;;;;;;;;2.00;2.00;;;;;;;;4999951;28;10997;-79
2022/04/17 07:28:47;;;;;;;;;4.25;4.25;;;;;;;;4997078;28;10888;-78
2022/04/17 07:31:15;;;;;;;;;5.50;5.50;;;;;;;;4998531;28;10806;-78
2022/04/17 07:33:43;;;;;;;;;4.25;4.25;;;;;;;;4997468;28;11047;-78
2022/04/17 07:36:10;;;;;;;;;6.25;6.25;;;;;;;;4998543;28;10804;-79
2022/04/17 07:38:38;;;;;;;;;5.50;5.50;;;;;;;;5004735;28;10790;-78
2022/04/17 07:41:05;;;;;;;;;3.00;3.00;;;;;;;;5000576;28;10731;-78
2022/04/17 07:43:32;;;;;;;;;5.50;5.50;;;;;;;;5000312;28;10857;-78
2022/04/17 07:46:02;;;;;;;;;4.50;4.50;;;;;;;;5001588;28;10772;-78
2022/04/17 07:48:29;;;;;;;;;4.50;4.50;;;;;;;;5001116;28;10565;-79
2022/04/17 07:50:56;;;;;;;;;4.00;4.00;;;;;;;;4996571;28;10574;-77
2022/04/17 07:53:24;;;;;;;;;7.00;3.50;;;;;;;;5001797;28;10504;-77
2022/04/17 07:55:51;;;;;;;;;6.00;6.00;;;;;;;;4996880;28;10367;-78
2022/04/17 07:58:25;;;;;;;;;4.00;4.00;;;;;;;;4998784;28;10367;-77
2022/04/17 08:00:58;;;;;;;;;3.75;3.75;;;;;;;;4996028;28;10330;-79
2022/04/17 08:03:46;;;;;;;;;4.00;4.00;;;;;;;;4997244;28;10200;-79
2022/04/17 08:06:15;;;;;;;;;3.00;3.00;;;;;;;;5009044;28;9967;-77
2022/04/17 08:08:43;;;;;;;;;5.75;5.75;;;;;;;;5004593;28;9918;-76
2022/04/17 08:11:12;;;;;;;;;3.50;3.50;;;;;;;;5007306;28;9954;-75
2022/04/17 08:13:42;;;;;;;;;6.00;4.00;;;;;;;;4999862;28;9976;-77
2022/04/17 08:16:10;;;;;;;;;3.50;3.50;;;;;;;;4995437;28;9791;-79
2022/04/17 08:18:38;;;;;;;;;5.25;5.25;;;;;;;;4997554;28;9716;-77
2022/04/17 08:21:06;;;;;;;;;3.00;2.00;;;;;;;;4995845;28;9724;-76
2022/04/17 08:23:35;;;;;;;;;6.50;4.00;;;;;;;;4992750;28;9630;-75
2022/04/17 08:26:03;;;;;;;;;3.00;3.00;;;;;;;;4999984;28;9629;-78
2022/04/17 08:28:30;;;;;;;;;6.50;5.00;;;;;;;;5006738;28;9425;-77
2022/04/17 08:30:58;;;;;;;;;4.67;4.67;;;;;;;;4998539;28;9533;-76
2022/04/17 08:33:26;;;;;;;;;5.00;3.33;;;;;;;;5000759;28;9420;-81
2022/04/17 08:35:57;;;;;;;;;4.00;4.00;;;;;;;;5004631;28;9253;-77
2022/04/17 08:38:25;;;;;;;;;4.00;4.00;;;;;;;;4984761;28;9290;-77
2022/04/17 08:40:52;;;;;;;;;4.00;4.00;;;;;;;;4997055;28;9228;-78
2022/04/17 08:43:21;;;;;;;;;3.67;3.67;;;;;;;;4999024;28;9259;-78
2022/04/17 08:45:50;;;;;;;;;6.33;4.33;;;;;;;;4995135;28;8985;-79
2022/04/17 08:48:18;;;;;;;;;3.00;3.00;;;;;;;;4995086;28;9040;-80
2022/04/17 08:50:48;;;;;;;;;3.50;3.50;;;;;;;;5000299;28;8951;-81
2022/04/17 08:53:18;;;;;;;;;4.75;4.75;;;;;;;;4998029;28;8889;-88
2022/04/17 08:55:45;;;;;;;;;3.25;3.25;;;;;;;;5002147;28;8879;-82
2022/04/17 08:58:13;;;;;;;;;2.75;2.75;;;;;;;;5000234;28;8969;-85
2022/04/17 09:00:40;;;;;;;;;4.00;4.00;;;;;;;;5001233;28;8818;-85
2022/04/17 09:03:13;;;;;;;;;4.50;4.50;;;;;;;;4994835;28;8976;-82
2022/04/17 09:05:40;;;;;;;;;3.75;3.75;;;;;;;;4995686;28;8891;-80
2022/04/17 09:08:17;;;;;;;;;3.00;3.00;;;;;;;;4993223;28;8867;-80
2022/04/17 09:10:55;;;;;;;;;4.00;4.00;;;;;;;;4998792;28;8868;-84
2022/04/17 09:13:33;;;;;;;;;3.50;3.50;;;;;;;;5001515;28;8872;-81
2022/04/17 09:16:02;;;;;;;;;1.25;1.25;;;;;;;;4998403;28;8860;-81
2022/04/17 09:18:31;;;;;;;;;2.50;2.50;;;;;;;;4998696;28;8871;-83
2022/04/17 09:21:01;;;;;;;;;3.00;3.00;;;;;;;;4996281;28;8875;-82
2022/04/17 09:23:37;;;;;;;;;3.00;3.00;;;;;;;;4994944;28;8837;-82
2022/04/17 09:26:05;;;;;;;;;3.00;3.00;;;;;;;;5000686;28;8875;-80
2022/04/17 09:28:34;;;;;;;;;3.00;3.00;;;;;;;;5000197;28;8865;-82
2022/04/17 09:31:02;;;;;;;;;2.50;2.50;;;;;;;;4999739;28;8845;-82
2022/04/17 09:33:40;;;;;;;;;4.25;2.75;;;;;;;;4996781;28;8996;-80
2022/04/17 09:36:08;;;;;;;;;3.50;3.50;;;;;;;;4997481;28;9651;-83
2022/04/17 09:38:37;;;;;;;;;3.00;3.00;;;;;;;;4995667;28;9626;-82
2022/04/17 09:41:09;;;;;;;;;1.50;1.50;;;;;;;;4999653;28;9649;-82
2022/04/17 09:43:37;;;;;;;;;2.00;2.00;;;;;;;;5000436;28;8894;-81
2022/04/17 09:46:07;;;;;;;;;2.25;2.25;;;;;;;;4993978;28;8837;-81
2022/04/17 09:48:35;;;;;;;;;4.00;4.00;;;;;;;;5006046;28;8895;-81
2022/04/17 09:51:18;;;;;;;;;3.00;3.00;;;;;;;;4997000;28;8958;-81
2022/04/17 09:53:57;;;;;;;;;5.50;5.50;;;;;;;;5001542;28;8886;-80
2022/04/17 09:56:32;;;;;;;;;3.75;2.75;;;;;;;;5000885;28;9749;-81
2022/04/17 09:59:00;;;;;;;;;2.50;2.50;;;;;;;;5002676;28;8896;-81
2022/04/17 10:01:29;;;;;;;;;4.00;2.75;;;;;;;;4988686;28;8842;-81
2022/04/17 10:03:57;;;;;;;;;9.50;9.50;;;;;;;;4991571;28;8861;-81
2022/04/17 10:06:24;;;;;;;;;7.00;7.00;;;;;;;;4983473;28;8891;-81
2022/04/17 10:08:54;;;;;;;;;3.50;3.50;;;;;;;;4986828;28;8875;-81
2022/04/17 10:11:22;;;;;;;;;3.80;3.00;;;;;;;;5006642;28;8864;-81
2022/04/17 10:13:49;;;;;;;;;3.00;3.00;;;;;;;;4998006;28;8899;-81
2022/04/17 10:16:22;;;;;;;;;10.50;10.50;;;;;;;;5011757;28;8864;-81
2022/04/17 10:18:50;;;;;;;;;3.40;3.40;;;;;;;;4999741;28;8879;-81
2022/04/17 10:21:20;;;;;;;;;3.00;3.00;;;;;;;;4999351;28;8865;-81
2022/04/17 10:23:49;;;;;;;;;2.20;2.20;;;;;;;;5007305;28;8936;-81
2022/04/17 10:26:19;;;;;;;;;3.00;3.00;;;;;;;;4995033;28;8990;-81
2022/04/17 10:28:50;;;;;;;;;2.00;2.00;;;;;;;;4985871;28;8878;-80
2022/04/17 10:31:19;;;;;;;;;2.00;2.00;;;;;;;;4985128;28;8779;-81
2022/04/17 10:34:12;;;;;;;;;2.00;2.00;;;;;;;;5016709;28;8970;-81
2022/04/17 10:36:57;;;;;;;;;1.80;1.00;;;;;;;;5003485;28;8900;-80
2022/04/17 10:39:31;;;;;;;;;3.00;3.00;;;;;;;;4995140;28;8871;-81
2022/04/17 10:42:01;;;;;;;;;4.00;2.00;;;;;;;;4985252;28;8921;-80
2022/04/17 10:44:30;;;;;;;;;1.80;1.80;;;;;;;;5009206;28;8884;-80
2022/04/17 10:46:58;;;;;;;;;4.00;4.00;;;;;;;;5004903;28;8876;-79
2022/04/17 10:49:28;;;;;;;;;3.40;3.40;;;;;;;;5005899;28;8927;-80
2022/04/17 10:51:57;;;;;;;;;12.00;10.00;;;;;;;;4994636;28;8922;-80
2022/04/17 10:54:25;;;;;;;;;3.20;3.20;;;;;;;;4995969;28;8875;-81
2022/04/17 10:57:03;;;;;;;;;6.20;6.20;;;;;;;;5001498;28;8878;-80
2022/04/17 10:59:32;;;;;;;;;5.80;4.80;;;;;;;;5003043;28;9029;-80
2022/04/17 11:02:05;;;;;;;;;10.80;9.00;;;;;;;;5004474;28;8957;-81
2022/04/17 11:04:33;;;;;;;;;15.60;15.20;;;;;;;;5006157;28;8886;-81
2022/04/17 11:07:19;;;;;;;;;11.00;11.00;;;;;;;;4999296;28;8866;-80
2022/04/17 11:09:47;;;;;;;;;0.00;0.00;;;;;;;;4986736;28;9648;-81
2022/04/17 11:12:29;;;;;;;;;4.00;4.00;;;;;;;;4992618;28;8906;-79
2022/04/17 11:15:18;;;;;;;;;3.00;3.00;;;;;;;;5003728;28;8936;-81
2022/04/17 11:17:47;;;;;;;;;3.20;3.20;;;;;;;;4984977;28;8879;-80
2022/04/17 11:20:15;;;;;;;;;5.20;5.20;;;;;;;;5003222;28;8868;-79
2022/04/17 11:22:43;;;;;;;;;2.20;2.20;;;;;;;;5004166;28;8984;-81
2022/04/17 11:25:12;;;;;;;;;2.80;2.00;;;;;;;;4995470;28;8906;-80
2022/04/17 11:27:42;;;;;;;;;1.00;1.00;;;;;;;;4986117;28;8885;-81
2022/04/17 11:30:30;;;;;;;;;1.60;1.60;;;;;;;;5011078;28;8919;-80
2022/04/17 11:32:58;;;;;;;;;3.00;3.00;;;;;;;;4985756;28;8936;-80
2022/04/17 11:35:26;;;;;;;;;2.60;1.00;;;;;;;;5003409;28;8850;-81
2022/04/17 11:37:56;;;;;;;;;5.40;5.40;;;;;;;;4999556;28;9723;-80
2022/04/17 11:40:26;;;;;;;;;14.40;14.40;;;;;;;;4985618;28;8857;-80
2022/04/17 11:42:56;;;;;;;;;6.00;6.00;;;;;;;;4988584;28;8896;-80
2022/04/17 11:45:25;;;;;;;;;37.00;32.40;;;;;;;;4998531;28;9762;-80
2022/04/17 11:47:53;;;;;;;;;3.60;3.60;;;;;;;;5002861;28;8897;-80
2022/04/17 11:50:23;;;;;;;;;17.60;17.60;;;;;;;;4986668;28;8972;-80
2022/04/17 11:52:51;;;;;;;;;19.00;16.00;;;;;;;;4996516;28;8889;-80
2022/04/17 11:55:25;;;;;;;;;6.40;6.40;;;;;;;;4999146;28;8881;-80
2022/04/17 11:57:55;;;;;;;;;8.60;7.00;;;;;;;;5000573;28;8890;-79
2022/04/17 12:00:23;;;;;;;;;15.80;15.40;;;;;;;;5002713;28;8894;-80
2022/04/17 12:02:59;;;;;;;;;2.40;2.40;;;;;;;;4998395;28;9654;-80
2022/04/17 12:05:27;;;;;;;;;2.20;2.20;;;;;;;;5003242;28;8843;-80
2022/04/17 12:08:01;;;;;;;;;2.80;2.80;;;;;;;;5004123;28;8870;-80
2022/04/17 12:10:28;;;;;;;;;3.40;3.40;;;;;;;;4990284;28;8992;-80
2022/04/17 12:12:58;;;;;;;;;2.60;2.60;;;;;;;;4983932;28;9651;-81
2022/04/17 12:15:25;;;;;;;;;2.00;2.00;;;;;;;;4984614;28;8913;-81
2022/04/17 12:18:00;;;;;;;;;5.40;5.40;;;;;;;;4985560;28;8858;-80
2022/04/17 12:20:27;;;;;;;;;4.40;3.20;;;;;;;;4999569;28;8895;-80
2022/04/17 12:22:55;;;;;;;;;3.00;3.00;;;;;;;;4984504;28;9666;-80
2022/04/17 12:25:24;;;;;;;;;3.40;3.40;;;;;;;;4991575;28;8913;-79
2022/04/17 12:27:53;;;;;;;;;5.00;3.20;;;;;;;;4985536;28;8884;-81
2022/04/17 12:30:24;;;;;;;;;1.60;1.60;;;;;;;;4984670;28;8955;-81
2022/04/17 12:32:55;;;;;;;;;2.60;2.60;;;;;;;;4996687;28;8981;-81
2022/04/17 12:35:24;;;;;;;;;2.80;2.80;;;;;;;;4983886;28;8894;-81
2022/04/17 12:38:03;;;;;;;;;3.60;3.60;;;;;;;;5004168;28;9508;-81
2022/04/17 12:40:31;;;;;;;;;4.00;4.00;;;;;;;;4985503;28;8896;-81
2022/04/17 12:43:13;;;;;;;;;3.20;2.80;;;;;;;;4988663;28;9659;-80
2022/04/17 12:45:55;;;;;;;;;1.80;1.80;;;;;;;;4993877;28;8907;-81
2022/04/17 12:48:26;;;;;;;;;3.20;3.20;;;;;;;;4985547;28;8886;-81
2022/04/17 12:51:04;;;;;;;;;1.80;1.80;;;;;;;;5003375;28;9062;-80
2022/04/17 12:53:37;;;;;;;;;3.60;3.60;;;;;;;;5005675;28;8902;-81
2022/04/17 12:56:05;;;;;;;;;1.00;1.00;;;;;;;;4994368;28;9661;-81
2022/04/17 12:58:50;;;;;;;;;2.80;2.80;;;;;;;;5004330;28;8944;-81
2022/04/17 13:01:23;;;;;;;;;4.00;3.00;;;;;;;;4994694;28;8842;-81
2022/04/17 13:03:51;;;;;;;;;3.80;1.80;;;;;;;;4995340;28;8952;-81
2022/04/17 13:06:23;;;;;;;;;0.80;0.80;;;;;;;;5004285;28;8910;-81
2022/04/17 13:09:07;;;;;;;;;1.00;1.00;;;;;;;;5013387;28;8930;-81
2022/04/17 13:11:35;;;;;;;;;1.20;1.20;;;;;;;;5001693;28;8890;-81
2022/04/17 13:14:03;;;;;;;;;1.40;1.40;;;;;;;;4988646;28;9636;-81
2022/04/17 13:16:33;;;;;;;;;0.20;0.20;;;;;;;;5003407;28;8900;-81
2022/04/17 13:19:01;;;;;;;;;2.40;2.40;;;;;;;;5002235;28;8878;-81
2022/04/17 13:21:28;;;;;;;;;5.20;5.20;;;;;;;;5003035;28;8902;-81
2022/04/17 13:23:59;;;;;;;;;2.00;2.00;;;;;;;;5002824;28;8883;-81
2022/04/17 13:26:27;;;;;;;;;1.00;1.00;;;;;;;;4988783;28;8877;-81
2022/04/17 13:28:54;;;;;;;;;1.00;1.00;;;;;;;;4998777;28;8871;-80
2022/04/17 13:31:22;;;;;;;;;0.80;0.80;;;;;;;;5000024;28;8802;-80
2022/04/17 13:33:50;;;;;;;;;1.80;1.80;;;;;;;;4996195;28;8888;-81
2022/04/17 13:36:18;;;;;;;;;1.00;1.00;;;;;;;;5001028;28;8874;-80
2022/04/17 13:38:46;;;;;;;;;1.00;1.00;;;;;;;;4996692;28;8940;-81
2022/04/17 13:41:14;;;;;;;;;1.00;1.00;;;;;;;;4982902;28;9015;-81
2022/04/17 13:43:41;;;;;;;;;1.00;1.00;;;;;;;;4993526;28;9698;-82
2022/04/17 13:46:08;;;;;;;;;1.80;0.80;;;;;;;;4995137;28;8991;-81
2022/04/17 13:48:38;;;;;;;;;0.60;0.60;;;;;;;;4988710;28;8882;-82
2022/04/17 13:51:07;;;;;;;;;2.00;2.00;;;;;;;;5006608;28;8961;-82
2022/04/17 13:53:34;;;;;;;;;0.00;0.00;;;;;;;;4991782;28;8891;-82
2022/04/17 13:56:02;;;;;;;;;0.00;0.00;;;;;;;;5000236;28;8979;-82
2022/04/17 13:58:29;;;;;;;;;1.00;1.00;;;;;;;;4985977;28;8890;-81
2022/04/17 14:00:57;;;;;;;;;1.40;1.00;;;;;;;;4995451;28;8822;-82
2022/04/17 14:06:27;;;;;;;;;0.40;0.40;;;;;;;;5069484;23;8977;-82
2022/04/17 14:08:54;;;;;;;;;0.80;0.80;;;;;;;;5006491;28;8998;-81
2022/04/17 14:11:24;;;;;;;;;0.00;0.00;;;;;;;;5005663;28;8956;-81
2022/04/17 14:13:52;;;;;;;;;0.00;0.00;;;;;;;;5008990;28;9019;-81
2022/04/17 14:16:19;;;;;;;;;0.60;0.60;;;;;;;;5015110;28;8896;-81
2022/04/17 14:18:46;;;;;;;;;0.00;0.00;;;;;;;;5002979;28;8867;-81
2022/04/17 14:21:13;;;;;;;;;0.00;0.00;;;;;;;;5002587;28;8877;-82
2022/04/17 14:23:42;;;;;;;;;0.00;0.00;;;;;;;;5007125;28;8908;-81
2022/04/17 14:26:09;;;;;;;;;0.00;0.00;;;;;;;;5005458;28;8852;-80
2022/04/17 14:28:37;;;;;;;;;0.00;0.00;;;;;;;;5006022;28;8874;-81
2022/04/17 14:31:05;;;;;;;;;0.00;0.00;;;;;;;;5006225;28;8824;-81
2022/04/17 14:33:32;;;;;;;;;0.00;0.00;;;;;;;;5006636;28;8880;-81
2022/04/17 14:36:00;;;;;;;;;0.00;0.00;;;;;;;;5003751;28;8880;-81
2022/04/17 14:38:28;;;;;;;;;0.00;0.00;;;;;;;;4992797;28;8906;-80
2022/04/17 14:40:56;;;;;;;;;0.00;0.00;;;;;;;;5002041;28;8888;-81
2022/04/17 14:43:23;;;;;;;;;0.20;0.20;;;;;;;;5005182;28;8887;-80
2022/04/17 14:45:52;;;;;;;;;0.00;0.00;;;;;;;;5006375;28;9042;-81
2022/04/17 14:48:20;;;;;;;;;0.00;0.00;;;;;;;;5012190;28;8884;-80
2022/04/17 14:50:48;;;;;;;;;0.80;0.00;;;;;;;;5024656;28;9007;-80
2022/04/17 14:53:16;;;;;;;;;0.00;0.00;;;;;;;;5005613;28;8908;-81
2022/04/17 14:55:44;;;;;;;;;0.00;0.00;;;;;;;;5005207;28;8895;-81
2022/04/17 14:58:13;;;;;;;;;0.00;0.00;;;;;;;;5020614;28;8876;-81
2022/04/17 15:00:40;;;;;;;;;0.20;0.20;;;;;;;;5014228;28;8828;-81
2022/04/17 15:03:08;;;;;;;;;1.00;0.00;;;;;;;;5005325;28;8913;-81
2022/04/17 15:05:35;;;;;;;;;0.00;0.00;;;;;;;;5022938;28;8883;-81
2022/04/17 15:08:03;;;;;;;;;0.00;0.00;;;;;;;;5012886;28;8891;-81
2022/04/17 15:10:30;;;;;;;;;0.00;0.00;;;;;;;;5000489;28;8992;-80
2022/04/17 15:12:57;;;;;;;;;0.00;0.00;;;;;;;;5004505;28;8904;-81
2022/04/17 15:15:27;;;;;;;;;0.00;0.00;;;;;;;;5005470;28;8892;-81
2022/04/17 15:17:54;;;;;;;;;0.00;0.00;;;;;;;;5004014;28;8891;-80
2022/04/17 15:20:21;;;;;;;;;0.00;0.00;;;;;;;;5005426;28;8899;-81